Flight Track Log - Related Links

Times and Time Zones

All times are in EDT time to prevent confusion due to time zone crossing. See the VH-CZI flight status page for this flight to view local times or setup timezone preferences in your user account.

Time Position Orientation Groundspeed Altitude Reporting Facility
EDT Latitude Longitude Course Direction KTS MPH feet Rate Location/Type
Mon 02:07:44 AM -32.0992 115.8708 292° West 66 76 500  Level Aus ATC (RADAR)
Mon 02:08:14 AM -32.0951 115.8586 292° West 78 90 1,100 923 Climbing Aus ATC (RADAR)
Mon 02:08:49 AM -32.0844 115.8505 327° Northwest 83 96 1,500 900 Climbing Aus ATC (RADAR)
Mon 02:09:34 AM -32.0723 115.8391 321° Northwest 77 89 2,300 1,050 Climbing Aus ATC (RADAR)
Mon 02:10:09 AM -32.0827 115.8260 227° Southwest 102 117 2,900 565 Climbing Aus ATC (RADAR)
Mon 02:10:59 AM -32.1122 115.8200 190° South 132 152 3,100 165 Climbing Aus ATC (RADAR)
Mon 02:11:58 AM -32.1500 115.8199 180° South 142 163 3,200  Climbing Aus ATC (RADAR)
Mon 02:12:54 AM -32.1682 115.8621 117° Southeast 157 181 3,100 -52 Descending Aus ATC (RADAR)
Mon 02:13:53 AM -32.1544 115.9043 69° East 139 160 3,100  Level Aus ATC (RADAR)
Mon 02:14:38 AM -32.1306 115.9096 11° North 115 132 3,100  Level Aus ATC (RADAR)
Mon 02:15:13 AM -32.1123 115.9171 19° North 116 133 3,100 -253 Level Aus ATC (RADAR)
Mon 02:16:13 AM -32.0845 115.9248 13° North 98 113 2,700 -436 Descending Aus ATC (RADAR)
Mon 02:17:03 AM -32.0633 115.9314 15° North 95 109 2,300 -533 Descending Aus ATC (RADAR)
Mon 02:18:28 AM -32.0287 115.9389 10° North 93 107 1,500 -489 Descending Aus ATC (RADAR)
Mon 02:19:18 AM -32.0093 115.9450 15° North 86 99 1,200 -379 Descending Aus ATC (RADAR)
Mon 02:20:03 AM -31.9919 115.9498 13° North 88 101 900 -424 Descending Aus ATC (RADAR)
Mon 02:20:43 AM -31.9758 115.9549 15° North 89 102 600 71 Descending Aus ATC (RADAR)
Mon 02:21:28 AM -31.9579 115.9566 North 90 104 1,000 857 Climbing Aus ATC (RADAR)
Mon 02:22:42 AM -31.9636 115.9214 259° West 88 101 2,300 947 Climbing Aus ATC (RADAR)
Mon 02:23:22 AM -31.9656 115.9024 263° West 86 99 2,800 560 Climbing Aus ATC (RADAR)
Mon 02:23:57 AM -31.9679 115.8855 261° West 92 106 3,000 253 Climbing Aus ATC (RADAR)
Mon 02:24:57 AM -31.9730 115.8539 259° West 96 110 3,200 50 Climbing Aus ATC (RADAR)
Mon 02:25:57 AM -31.9690 115.8240 279° West 97 112 3,100 -57 Descending Aus ATC (RADAR)
Mon 02:26:42 AM -31.9627 115.8511 75° East 142 163 3,100 75 Level Aus ATC (RADAR)
Mon 02:27:17 AM -31.9851 115.8572 167° South 137 158 3,200  Climbing Aus ATC (RADAR)
Mon 02:28:07 AM -32.0144 115.8476 196° South 133 153 3,100 -52 Descending Aus ATC (RADAR)
Mon 02:29:12 AM -32.0543 115.8381 191° South 138 159 3,100  Level Aus ATC (RADAR)
Mon 02:29:42 AM -32.0695 115.8565 134° Southeast 154 177 3,100  Level Aus ATC (RADAR)
Mon 02:30:17 AM -32.0863 115.8467 206° Southwest 127 146 3,100  Level Aus ATC (RADAR)
Mon 02:30:52 AM -32.0710 115.8494 North 115 132 3,100 75 Level Aus ATC (RADAR)
Mon 02:31:37 AM -32.0838 115.8816 115° Southeast 145 167 3,200 76 Climbing Aus ATC (RADAR)
Mon 02:32:11 AM -32.0966 115.9060 122° Southeast 146 168 3,200 -424 Level Aus ATC (RADAR)
Mon 02:33:16 AM -32.0775 115.9385 55° Northeast 124 143 2,500 -528 Descending Aus ATC (RADAR)
Mon 02:34:16 AM -32.0457 115.9408 North 117 135 2,100 -514 Descending Aus ATC (RADAR)
Mon 02:35:01 AM -32.0198 115.9451 North 124 143 1,600 -675 Descending Aus ATC (RADAR)
Mon 02:35:36 AM -31.9990 115.9483 North 129 148 1,200 -635 Descending Aus ATC (RADAR)
Mon 02:36:26 AM -31.9695 115.9542 10° North 128 147 700 436 Descending Aus ATC (RADAR)
Mon 02:37:26 AM -31.9631 115.9916 79° East 123 142 2,000 1,143 Climbing Aus ATC (RADAR)
Mon 02:38:11 AM -31.9640 116.0228 92° East 122 140 2,700 960 Climbing Aus ATC (RADAR)
Mon 02:38:41 AM -31.9632 116.0433 87° East 119 137 3,200 923 Climbing Aus ATC (RADAR)
Mon 02:39:16 AM -31.9620 116.0680 87° East 125 144 3,700 800 Climbing Aus ATC (RADAR)
Mon 02:39:56 AM -31.9557 116.0967 76° East 130 150 4,200 800 Climbing Aus ATC (RADAR)
Mon 02:40:31 AM -31.9526 116.1233 82° East 134 154 4,700 771 Climbing Aus ATC (RADAR)
Mon 02:41:06 AM -31.9480 116.1501 79° East 137 158 5,100 480 Climbing Aus ATC (RADAR)
Mon 02:41:46 AM -31.9366 116.1822 67° East 156 180 5,300  Climbing Aus ATC (RADAR)
Mon 02:42:21 AM -31.9249 116.2127 66° East 173 199 5,100 -135 Descending Aus ATC (RADAR)
Mon 02:43:15 AM -31.9042 116.2600 63° Northeast 170 196 5,100  Level Aus ATC (RADAR)
Mon 02:43:46 AM -31.8898 116.2801 50° Northeast 161 185 5,100 185 Level Aus ATC (RADAR)
Mon 02:44:20 AM -31.8739 116.3062 54° Northeast 163 188 5,300 76 Climbing Aus ATC (RADAR)
Mon 02:45:05 AM -31.8505 116.3358 47° Northeast 163 188 5,200 -75 Descending Aus ATC (RADAR)
Mon 02:45:40 AM -31.8321 116.3587 47° Northeast 166 191 5,200  Level Aus ATC (RADAR)
Mon 02:46:35 AM -31.8021 116.3959 46° Northeast 169 194 5,200  Level Aus ATC (RADAR)
Mon 02:47:25 AM -31.7786 116.4352 55° Northeast 172 198 5,200  Level Aus ATC (RADAR)
Mon 02:48:40 AM -31.7408 116.4886 50° Northeast 166 191 5,200  Level Aus ATC (RADAR)
Mon 02:49:35 AM -31.7151 116.5314 55° Northeast 173 199 5,200 -60 Level Aus ATC (RADAR)
Mon 02:50:20 AM -31.6891 116.5611 44° Northeast 171 197 5,100 -150 Descending Aus ATC (RADAR)
Mon 02:50:55 AM -31.6662 116.5783 33° Northeast 169 194 5,000 -141 Descending Aus ATC (RADAR)
Mon 02:51:45 AM -31.6655 116.6303 89° East 181 208 4,900  Descending Aus ATC (RADAR)
Mon 02:52:45 AM -31.6639 116.6916 88° East 182 209 5,000 57 Climbing Aus ATC (RADAR)
Mon 02:53:30 AM -31.6626 116.7373 88° East 180 207 5,000  Level Aus ATC (RADAR)
Mon 02:54:30 AM -31.6556 116.7968 82° East 177 204 5,000  Level Aus ATC (RADAR)
Mon 02:55:20 AM -31.6520 116.8481 85° East 185 213 5,000  Level Aus ATC (RADAR)
Mon 02:56:00 AM -31.6479 116.8887 83° East 185 213 5,000  Level Aus ATC (RADAR)
Mon 02:56:55 AM -31.6516 116.9444 95° East 178 205 5,000 -171 Level Aus ATC (RADAR)
Mon 02:57:45 AM -31.6517 116.9948 90° East 181 208 4,700 -447 Descending Aus ATC (RADAR)
Mon 02:58:29 AM -31.6433 117.0373 77° East 176 203 4,300 -462 Descending Aus ATC (RADAR)
Mon 02:59:29 AM -31.6375 117.0931 83° East 167 192 3,900 -396 Descending Aus ATC (RADAR)
Mon 03:00:15 AM -31.6360 117.1356 88° East 168 193 3,600 -296 Descending Aus ATC (RADAR)
Mon 03:00:50 AM -31.6350 117.1676 88° East 165 190 3,500 -67 Descending Aus ATC (RADAR)
Mon 03:01:44 AM -31.6273 117.2132 79° East 150 173 3,500 -58 Level Aus ATC (RADAR)
Mon 03:02:34 AM -31.6154 117.2515 70° East 147 169 3,400  Descending Aus ATC (RADAR)
Mon 03:03:34 AM -31.5954 117.2262 313° West 113 130 3,500 52 Climbing Aus ATC (RADAR)
Mon 03:04:29 AM -31.6101 117.1972 239° Southwest 112 129 3,500  Level Aus ATC (RADAR)
Mon 03:05:04 AM -31.6196 117.1784 239° Southwest 114 131 3,500  Level Aus ATC (RADAR)
Mon 03:05:39 AM -31.6264 117.1598 247° West 104 120 3,500 -67 Level Aus ATC (RADAR)
Mon 03:06:34 AM -31.6435 117.1957 119° Southeast 165 190 3,400  Descending Aus ATC (RADAR)
Mon 03:07:24 AM -31.6235 117.2254 52° Northeast 134 154 3,500 60 Climbing Aus ATC (RADAR)
Mon 03:08:14 AM -31.5987 117.2405 27° Northeast 130 150 3,500 -71 Level Aus ATC (RADAR)
Mon 03:08:49 AM -31.6009 117.2199 263° West 117 135 3,400 -150 Descending Aus ATC (RADAR)
Mon 03:09:34 AM -31.6137 117.1966 237° Southwest 111 128 3,300 -320 Descending Aus ATC (RADAR)
Mon 03:10:04 AM -31.6219 117.1814 238° Southwest 110 127 3,000 -712 Descending Aus ATC (RADAR)
Mon 03:10:33 AM -31.6297 117.1656 246° West 111 128 2,600 111 Descending Aus ATC (RADAR)
Mon 03:12:00 AM -31.6281 117.1646 246° West  Level Estimated
Mon 03:19:00 AM -31.6582 117.0837 246° West  Level Estimated
Mon 03:19:00 AM -31.6659 117.0678 246° West  Level Estimated
Mon 03:20:00 AM -31.6625 117.0721 246° West  Level Estimated
Mon 03:21:00 AM -31.6668 117.0606 246° West  Level Estimated
Mon 03:22:00 AM -31.6711 117.0490 246° West  Level Estimated
Mon 03:23:00 AM -31.6754 117.0374 246° West  Level Estimated
Mon 03:24:00 AM -31.6797 117.0259 246° West  Level Estimated
Mon 03:26:00 AM -31.6959 116.9868 247° West  Level Estimated
Mon 03:27:00 AM -31.7001 116.9752 247° West  Level Estimated
Mon 03:27:48 AM -31.6434 117.0159 92° East 6,000  Level Aus ATC (Calculated)
Mon 03:28:00 AM -31.7044 116.9637 247° West  Level Estimated
Mon 03:29:00 AM -31.6489 117.0023 244° Southwest  Level Estimated
Mon 03:30:00 AM -31.6535 116.9909 244° Southwest  Level Estimated
Mon 03:31:00 AM -31.6582 116.9795 244° Southwest  Level Estimated
Mon 03:32:00 AM -31.6628 116.9681 244° Southwest  Level Estimated
Mon 03:33:00 AM -31.6674 116.9567 244° Southwest  Level Estimated
Mon 03:34:00 AM -31.6720 116.9453 245° Southwest  Level Estimated
Mon 03:35:00 AM -31.6767 116.9339 245° Southwest  Level Estimated
Mon 03:36:00 AM -31.6813 116.9225 245° Southwest  Level Estimated
Mon 03:37:00 AM -31.6859 116.9112 245° Southwest  Level Estimated
Mon 03:37:01 AM -31.6457 117.0976 245° Southwest 121 139 6,000  Level Aus ATC (RADAR)
Mon 03:37:56 AM -31.6554 117.0630 252° West 120 138 6,000 -57 Level Aus ATC (RADAR)
Mon 03:38:46 AM -31.6639 117.0304 253° West 123 142 5,900 -55 Descending Aus ATC (RADAR)
Mon 03:39:46 AM -31.6731 116.9915 254° West 122 140 5,900 55 Level Aus ATC (RADAR)
Mon 03:40:36 AM -31.6799 116.9588 256° West 122 140 6,000 229 Climbing Aus ATC (RADAR)
Mon 03:41:31 AM -31.6800 116.9230 270° West 118 136 6,300 67 Climbing Aus ATC (RADAR)
Mon 03:42:06 AM -31.6757 116.9001 282° West 122 140 6,100 -75 Descending Aus ATC (RADAR)
Mon 03:42:51 AM -31.6715 116.8706 279° West 119 137 6,200 80 Climbing Aus ATC (RADAR)
Mon 03:43:21 AM -31.6643 116.8517 294° West 123 142 6,200 -94 Level Aus ATC (RADAR)
Mon 03:43:55 AM -31.6626 116.8288 275° West 123 142 6,100  Descending Aus ATC (RADAR)
Mon 03:44:56 AM -31.6655 116.7885 265° West 120 138 6,200  Climbing Aus ATC (RADAR)
Mon 03:45:50 AM -31.6683 116.7515 265° West 123 142 6,100 -115 Descending Aus ATC (RADAR)
Mon 03:46:40 AM -31.6698 116.7164 267° West 126 145 6,000  Descending Aus ATC (RADAR)
Mon 03:47:15 AM -31.6701 116.6920 269° West 125 144 6,100 71 Climbing Aus ATC (RADAR)
Mon 03:48:05 AM -31.6742 116.6577 262° West 124 143 6,100  Level Aus ATC (RADAR)
Mon 03:49:05 AM -31.6752 116.6154 268° West 127 146 6,100  Level Aus ATC (RADAR)
Mon 03:50:00 AM -31.6825 116.5764 258° West 130 150 6,100 57 Level Aus ATC (RADAR)
Mon 03:50:50 AM -31.6870 116.5421 261° West 124 143 6,200 -57 Climbing Aus ATC (RADAR)
Mon 03:51:45 AM -31.7113 116.5104 228° Southwest 142 163 6,000 -67 Descending Aus ATC (RADAR)
Mon 03:52:19 AM -31.7189 116.4882 248° West 128 147 6,100 67 Climbing Aus ATC (RADAR)
Mon 03:53:15 AM -31.7229 116.4509 263° West 124 143 6,100  Level Aus ATC (RADAR)
Mon 03:53:49 AM -31.7240 116.4267 267° West 124 143 6,100 81 Level Aus ATC (RADAR)
Mon 03:54:29 AM -31.7249 116.3988 268° West 125 144 6,200  Climbing Aus ATC (RADAR)
Mon 03:55:04 AM -31.7277 116.3744 262° West 127 146 6,100 -171 Descending Aus ATC (RADAR)
Mon 03:55:39 AM -31.7324 116.3512 257° West 124 143 6,000  Descending Aus ATC (RADAR)
Mon 03:56:34 AM -31.7362 116.3137 263° West 122 140 6,100 114 Climbing Aus ATC (RADAR)
Mon 03:57:24 AM -31.7475 116.2821 247° West 126 145 6,200  Climbing Aus ATC (RADAR)
Mon 03:58:14 AM -31.7594 116.2493 247° West 131 151 6,100 -71 Descending Aus ATC (RADAR)
Mon 03:58:48 AM -31.7679 116.2276 245° Southwest 126 145 6,100  Level Aus ATC (RADAR)
Mon 03:59:28 AM -31.7774 116.2019 247° West 126 145 6,100  Level Aus ATC (RADAR)
Mon 04:00:14 AM -31.7854 116.1757 250° West 124 143 6,100  Level Aus ATC (RADAR)
Mon 04:00:50 AM -31.7953 116.1501 245° Southwest 127 146 6,100  Level Aus ATC (RADAR)
Mon 04:01:38 AM -31.8073 116.1178 246° West 127 146 6,100 -56 Level Aus ATC (RADAR)
Mon 04:02:38 AM -31.8202 116.0791 249° West 125 144 6,000  Descending Aus ATC (RADAR)
Mon 04:03:28 AM -31.8325 116.0469 246° West 128 147 6,100 67 Climbing Aus ATC (RADAR)
Mon 04:04:08 AM -31.8409 116.0206 249° West 127 146 6,100  Level Aus ATC (RADAR)
Mon 04:05:04 AM -31.8541 115.9847 247° West 129 148 6,100  Level Aus ATC (RADAR)
Mon 04:05:58 AM -31.8663 115.9488 248° West 127 146 6,100  Level Aus ATC (RADAR)
Mon 04:06:48 AM -31.8792 115.9170 244° Southwest 127 146 6,100 -150 Level Aus ATC (RADAR)
Mon 04:07:18 AM -31.8854 115.8964 250° West 129 148 5,900 -640 Descending Aus ATC (RADAR)
Mon 04:08:03 AM -31.8981 115.8680 242° Southwest 130 150 5,300 -686 Descending Aus ATC (RADAR)
Mon 04:09:03 AM -31.9131 115.8285 246° West 130 150 4,700 -574 Descending Aus ATC (RADAR)
Mon 04:09:58 AM -31.9267 115.7929 246° West 126 145 4,200 -532 Descending Aus ATC (RADAR)
Mon 04:11:07 AM -31.9445 115.7481 245° Southwest 130 150 3,600 -493 Descending Aus ATC (RADAR)
Mon 04:12:12 AM -31.9659 115.7094 237° Southwest 135 155 3,100 -436 Descending Aus ATC (RADAR)
Mon 04:12:57 AM -32.0002 115.7182 168° South 164 189 2,800 -480 Descending Aus ATC (RADAR)
Mon 04:13:27 AM -32.0221 115.7263 163° South 165 190 2,500 -150 Descending Aus ATC (RADAR)
Mon 04:14:17 AM -32.0278 115.7092 248° West 102 117 2,600 50 Climbing Aus ATC (RADAR)
Mon 04:15:27 AM -31.9904 115.7193 13° North 117 135 2,600  Level Aus ATC (RADAR)
Mon 04:16:02 AM -31.9719 115.7231 10° North 117 135 2,600  Level Aus ATC (RADAR)
Mon 04:16:37 AM -31.9532 115.7282 13° North 116 133 2,600  Level Aus ATC (RADAR)
Mon 04:17:37 AM -31.9202 115.7360 11° North 121 139 2,600  Level Aus ATC (RADAR)
Mon 04:18:32 AM -31.8890 115.7420 North 123 142 2,600 -63 Level Aus ATC (RADAR)
Mon 04:19:12 AM -31.8702 115.7549 30° Northeast 125 144 2,500  Descending Aus ATC (RADAR)
Mon 04:19:47 AM -31.8812 115.7796 118° Southeast 147 169 2,600 126 Climbing Aus ATC (RADAR)
Mon 04:20:47 AM -31.9199 115.7974 159° South 143 165 2,700 -55 Climbing Aus ATC (RADAR)
Mon 04:21:37 AM -31.9499 115.8185 149° Southeast 149 171 2,500 -64 Descending Aus ATC (RADAR)
Mon 04:22:21 AM -31.9757 115.8395 145° Southeast 147 169 2,600 76 Climbing Aus ATC (RADAR)
Mon 04:22:56 AM -31.9963 115.8411 176° South 134 154 2,600  Level Aus ATC (RADAR)
Mon 04:23:31 AM -31.9924 115.8238 285° West 107 123 2,600  Level Aus ATC (RADAR)
Mon 04:24:01 AM -31.9760 115.8228 357° North 111 128 2,600  Level Aus ATC (RADAR)
Mon 04:24:36 AM -31.9579 115.8185 349° North 113 130 2,600 75 Level Aus ATC (RADAR)
Mon 04:25:21 AM -31.9349 115.8085 340° North 116 133 2,700 -67 Climbing Aus ATC (RADAR)
Mon 04:26:06 AM -31.9184 115.8303 48° Northeast 138 159 2,500 -282 Descending Aus ATC (RADAR)
Mon 04:26:46 AM -31.9420 115.8486 147° Southeast 147 169 2,300 -282 Descending Aus ATC (RADAR)
Mon 04:27:31 AM -31.9673 115.8432 190° South 122 140 2,100 -150 Descending Aus ATC (RADAR)
Mon 04:28:06 AM -31.9891 115.8497 166° South 139 160 2,100  Level Aus ATC (RADAR)
Mon 04:28:51 AM -32.0167 115.8601 162° South 139 160 2,100 -220 Level Aus ATC (RADAR)
Mon 04:29:55 AM -32.0566 115.8698 168° South 143 165 1,700 -421 Descending Aus ATC (RADAR)
Mon 04:30:45 AM -32.0860 115.8789 165° South 128 147 1,300 -709 Descending Aus ATC (RADAR)
Mon 04:31:45 AM -32.1106 115.8914 157° South 108 124 400 -900 Descending Aus ATC (RADAR)

Login

Don't have an account? Register now (free) for customized features, flight alerts, and more!